createdAt,value
2023-01-11T00:04:30.311Z,3.33
2023-01-11T00:09:37.166Z,3.40
2023-01-11T00:14:42.126Z,3.10
2023-01-11T00:19:44.196Z,2.72
2023-01-11T00:24:46.034Z,3.45
2023-01-11T00:29:47.968Z,2.83
2023-01-11T00:34:49.933Z,3.25
2023-01-11T00:39:52.757Z,2.33
2023-01-11T00:45:13.471Z,2.00
2023-01-11T00:50:15.429Z,1.83
2023-01-11T00:55:17.201Z,2.33
2023-01-11T01:00:20.527Z,1.95
2023-01-11T01:05:22.497Z,1.48
2023-01-11T01:10:25.295Z,1.92
2023-01-11T01:15:27.376Z,1.60
2023-01-11T01:20:29.170Z,2.10
2023-01-11T01:25:30.929Z,1.85
2023-01-11T01:30:33.844Z,1.85
2023-01-11T01:35:38.169Z,1.30
2023-01-11T01:40:44.578Z,1.90
2023-01-11T01:45:48.460Z,1.92
2023-01-11T01:50:57.619Z,1.80
2023-01-11T01:56:03.496Z,2.30
2023-01-11T02:01:24.346Z,1.88
2023-01-11T02:06:26.157Z,2.35
2023-01-11T02:11:31.348Z,2.60
2023-01-11T02:16:33.945Z,3.13
2023-01-11T02:21:38.298Z,3.03
2023-01-11T02:26:59.232Z,4.38
2023-01-11T02:32:30.897Z,3.55
2023-01-11T02:37:54.381Z,3.78
2023-01-11T02:43:32.798Z,3.40
2023-01-11T02:48:46.441Z,3.65
2023-01-11T02:53:54.767Z,4.32
2023-01-11T02:58:58.067Z,3.88
2023-01-11T03:03:59.625Z,3.85
2023-01-11T03:09:32.341Z,4.40
2023-01-11T03:14:45.642Z,4.65
2023-01-11T03:19:52.499Z,6.25
2023-01-11T03:25:20.483Z,7.47
2023-01-11T03:30:35.165Z,5.00
2023-01-11T03:35:39.588Z,5.40
2023-01-11T03:40:53.341Z,5.78
2023-01-11T03:45:59.985Z,6.00
2023-01-11T03:51:03.270Z,5.45
2023-01-11T03:56:09.865Z,5.38
2023-01-11T04:01:13.053Z,5.43
2023-01-11T04:06:15.351Z,5.43
2023-01-11T04:11:17.004Z,5.95
2023-01-11T04:16:18.728Z,5.93
2023-01-11T04:21:20.369Z,6.22
2023-01-11T04:26:21.989Z,4.95
2023-01-11T04:31:23.729Z,5.18
2023-01-11T04:36:26.429Z,5.78
2023-01-11T04:41:46.452Z,5.80
2023-01-11T04:46:48.180Z,4.80
2023-01-11T04:51:49.825Z,5.72
2023-01-11T04:56:51.499Z,4.82
2023-01-11T05:01:53.263Z,4.95
2023-01-11T05:06:54.965Z,4.03
2023-01-11T05:11:56.742Z,4.40
2023-01-11T05:16:59.036Z,4.10
2023-01-11T05:22:00.711Z,4.40
2023-01-11T05:27:03.589Z,4.22
2023-01-11T05:32:05.852Z,4.88
2023-01-11T05:37:07.464Z,4.07
2023-01-11T05:42:09.085Z,3.63
2023-01-11T05:47:10.703Z,3.80
2023-01-11T05:52:12.419Z,3.55
2023-01-11T05:57:14.040Z,3.38
2023-01-11T06:02:15.805Z,3.70
2023-01-11T06:07:17.486Z,4.00
2023-01-11T06:12:19.178Z,3.97
2023-01-11T06:17:20.830Z,2.90
2023-01-11T06:22:22.408Z,2.65
2023-01-11T06:27:23.987Z,3.65
2023-01-11T06:32:25.694Z,4.07
2023-01-11T06:37:27.283Z,3.25
2023-01-11T06:42:28.944Z,4.22
2023-01-11T06:47:30.697Z,2.97
2023-01-11T06:52:32.327Z,3.72
2023-01-11T06:57:33.962Z,3.25
2023-01-11T07:02:35.696Z,3.65
2023-01-11T07:07:38.210Z,3.33
2023-01-11T07:12:40.190Z,4.03
2023-01-11T07:17:41.868Z,4.10
2023-01-11T07:22:43.556Z,3.67
2023-01-11T07:27:45.265Z,2.90
2023-01-11T07:32:46.797Z,3.97
2023-01-11T07:37:48.455Z,4.20
2023-01-11T07:43:11.700Z,5.22
2023-01-11T07:48:14.741Z,3.22
2023-01-11T07:53:16.941Z,3.80
2023-01-11T07:58:18.656Z,3.00
2023-01-11T08:03:20.437Z,3.53
2023-01-11T08:08:22.252Z,3.88
2023-01-11T08:13:42.634Z,3.92
2023-01-11T08:23:45.796Z,3.92
2023-01-11T08:28:47.477Z,3.53
2023-01-11T08:33:49.862Z,3.78
2023-01-11T08:38:55.392Z,4.00
2023-01-11T08:43:57.007Z,3.60
2023-01-11T08:48:58.623Z,4.05
2023-01-11T08:54:00.296Z,3.05
2023-01-11T08:59:02.525Z,3.47
2023-01-11T09:04:15.527Z,4.03
2023-01-11T09:09:25.028Z,3.55
2023-01-11T09:14:28.533Z,3.58
2023-01-11T09:19:30.295Z,3.58
2023-01-11T09:24:32.134Z,3.97
2023-01-11T09:29:36.878Z,3.72
2023-01-11T09:34:39.301Z,3.45
2023-01-11T09:39:41.483Z,4.10
2023-01-11T09:44:51.394Z,4.65
2023-01-11T09:54:59.205Z,3.67
2023-01-11T10:00:09.695Z,3.67
2023-01-11T10:05:34.909Z,4.40
2023-01-11T10:18:33.077Z,4.47
2023-01-11T10:22:02.100Z,4.43
2023-01-11T10:27:12.488Z,3.70
2023-01-11T10:32:58.050Z,4.65
2023-01-11T10:38:23.024Z,4.25
2023-01-11T10:43:26.850Z,4.03
2023-01-11T10:48:43.529Z,4.15
2023-01-11T10:53:59.190Z,4.35
2023-01-11T10:59:15.783Z,4.63
2023-01-11T11:04:53.735Z,4.22
2023-01-11T11:10:19.118Z,3.85
2023-01-11T11:15:32.045Z,4.53
2023-01-11T11:20:35.034Z,4.57
2023-01-11T11:25:41.333Z,4.65
2023-01-11T11:30:46.979Z,3.92
2023-01-11T11:35:59.829Z,4.10
2023-01-11T11:41:04.564Z,4.22
2023-01-11T11:46:19.462Z,3.92
2023-01-11T11:51:23.625Z,4.03
2023-01-11T11:56:28.965Z,4.07
2023-01-11T12:01:37.095Z,3.95
2023-01-11T12:06:40.478Z,4.30
2023-01-11T12:11:42.340Z,4.22
2023-01-11T12:16:45.796Z,4.95
2023-01-11T12:21:47.586Z,3.90
2023-01-11T12:27:34.322Z,4.13
2023-01-11T12:32:49.004Z,6.05
2023-01-11T12:37:59.030Z,4.82
2023-01-11T12:48:46.272Z,5.10
2023-01-11T12:54:05.107Z,4.15
2023-01-11T12:59:22.156Z,4.50
2023-01-11T13:04:42.280Z,3.90
2023-01-11T13:10:09.985Z,4.57
2023-01-11T13:15:41.904Z,4.32
2023-01-11T13:21:06.923Z,3.78
2023-01-11T13:26:16.719Z,3.30
2023-01-11T13:31:19.694Z,3.45
2023-01-11T13:36:28.343Z,4.00
2023-01-11T13:41:48.373Z,5.25
2023-01-11T13:47:02.826Z,3.97
2023-01-11T13:52:16.968Z,4.40
2023-01-11T13:57:30.428Z,4.28
2023-01-11T14:02:58.022Z,4.20
2023-01-11T14:08:19.700Z,4.57
2023-01-11T14:14:11.770Z,5.53
2023-01-11T14:19:21.684Z,4.45
2023-01-11T14:24:25.875Z,4.15
2023-01-11T14:30:02.863Z,4.28
2023-01-11T14:35:19.451Z,4.38
2023-01-11T14:40:54.570Z,3.97
2023-01-11T14:46:23.705Z,3.73
2023-01-11T14:51:50.294Z,4.43
2023-01-11T14:56:55.667Z,4.45
2023-01-11T15:02:03.203Z,4.88
2023-01-11T15:07:28.957Z,5.38
2023-01-11T15:12:37.151Z,4.18
2023-01-11T15:17:58.966Z,3.90
2023-01-11T15:23:03.585Z,4.88
2023-01-11T15:28:40.025Z,5.32
2023-01-11T15:33:48.951Z,4.10
2023-01-11T15:39:21.447Z,4.18
2023-01-11T15:45:07.559Z,4.25
2023-01-11T15:50:38.999Z,4.55
2023-01-11T15:56:14.792Z,4.93
2023-01-11T16:01:29.568Z,5.18
2023-01-11T16:06:37.296Z,5.32
2023-01-11T16:12:06.681Z,4.68
2023-01-11T16:17:19.514Z,5.35
2023-01-11T16:22:25.756Z,4.15
2023-01-11T16:27:37.031Z,4.72
2023-01-11T16:32:38.948Z,5.18
2023-01-11T16:37:47.015Z,7.65
2023-01-11T16:43:23.869Z,6.18
2023-01-11T16:48:29.562Z,6.47
2023-01-11T16:53:36.593Z,5.20
2023-01-11T16:58:40.531Z,4.55
2023-01-11T17:03:54.870Z,5.53
2023-01-11T17:08:59.904Z,4.25
2023-01-11T17:14:25.931Z,5.05
2023-01-11T17:19:31.249Z,3.17
2023-01-11T17:25:07.470Z,5.78
2023-01-11T17:30:21.692Z,6.28
2023-01-11T17:35:26.825Z,6.78
2023-01-11T17:40:32.276Z,6.97
2023-01-11T17:45:34.787Z,5.93
2023-01-11T17:50:46.008Z,6.32
2023-01-11T17:55:58.833Z,6.20
2023-01-11T18:01:27.061Z,6.55
2023-01-11T18:06:45.061Z,6.60
2023-01-11T18:11:47.257Z,5.85
2023-01-11T18:17:30.785Z,5.35
2023-01-11T18:22:37.436Z,5.28
2023-01-11T18:27:39.277Z,5.20
2023-01-11T18:32:42.875Z,5.97
2023-01-11T18:37:44.491Z,5.68
2023-01-11T18:42:48.468Z,6.15
2023-01-11T18:47:50.515Z,6.47
2023-01-11T18:52:52.110Z,8.20
2023-01-11T18:57:53.763Z,4.65
2023-01-11T19:02:57.746Z,5.40
2023-01-11T19:07:59.454Z,6.90
2023-01-11T19:13:01.646Z,5.95
2023-01-11T19:18:03.981Z,5.88
2023-01-11T19:23:05.746Z,5.70
2023-01-11T19:28:07.520Z,6.30
2023-01-11T19:33:09.197Z,5.40
2023-01-11T19:38:11.084Z,6.15
2023-01-11T19:43:13.081Z,3.97
2023-01-11T19:48:15.137Z,4.60
2023-01-11T19:53:17.146Z,4.53
2023-01-11T19:58:18.787Z,4.38
2023-01-11T20:03:22.639Z,4.63
2023-01-11T20:08:24.389Z,5.40
2023-01-11T20:13:26.210Z,4.90
2023-01-11T20:18:27.857Z,5.25
2023-01-11T20:23:33.309Z,4.75
2023-01-11T20:28:34.999Z,4.88
2023-01-11T20:33:37.057Z,4.82
2023-01-11T20:38:39.274Z,4.95
2023-01-11T20:43:44.012Z,5.32
2023-01-11T20:48:48.246Z,4.80
2023-01-11T20:53:50.452Z,5.50
2023-01-11T20:58:52.224Z,5.30
2023-01-11T21:03:55.088Z,5.43
2023-01-11T21:08:59.841Z,4.03
2023-01-11T21:14:04.136Z,5.88
2023-01-11T21:19:06.041Z,5.22
2023-01-11T21:24:08.583Z,5.13
2023-01-11T21:29:11.597Z,5.32
2023-01-11T21:34:13.906Z,6.10
2023-01-11T21:39:16.519Z,6.30
2023-01-11T21:44:20.156Z,5.93
2023-01-11T21:49:24.199Z,5.28
2023-01-11T21:54:26.248Z,4.63
2023-01-11T21:59:30.006Z,6.18
2023-01-11T22:04:31.768Z,4.57
2023-01-11T22:09:33.719Z,4.63
2023-01-11T22:14:35.711Z,5.15
2023-01-11T22:19:37.732Z,3.85
2023-01-11T22:24:39.402Z,5.15
2023-01-11T22:29:43.214Z,4.80
2023-01-11T22:34:44.972Z,4.35
2023-01-11T22:39:46.610Z,4.03
2023-01-11T22:44:48.381Z,4.03
2023-01-11T22:49:54.356Z,4.15
2023-01-11T22:54:56.265Z,3.47
2023-01-11T22:59:58.956Z,4.47
2023-01-11T23:05:00.622Z,4.78
2023-01-11T23:10:02.408Z,4.82
2023-01-11T23:15:04.888Z,3.85
2023-01-11T23:20:06.872Z,5.00
2023-01-11T23:25:09.104Z,4.78
2023-01-11T23:30:11.359Z,4.57
2023-01-11T23:35:12.956Z,4.95
2023-01-11T23:40:14.697Z,5.05
2023-01-11T23:45:16.478Z,3.80
2023-01-11T23:50:18.148Z,4.20
2023-01-11T23:55:19.832Z,3.92
